createdAt,value
2023-03-23T15:58:29.564Z,99901.13
2023-03-23T16:00:59.035Z,99920.06
2023-03-23T16:03:31.405Z,99911.28
2023-03-23T16:06:03.175Z,99921.06
2023-03-23T16:08:30.933Z,99935.69
2023-03-23T16:11:00.065Z,99937.97
2023-03-23T16:13:27.854Z,99944.31
2023-03-23T16:15:56.030Z,99949.88
2023-03-23T16:18:23.928Z,99941.25
2023-03-23T16:20:52.930Z,99949.22
2023-03-23T16:23:21.055Z,99956.22
2023-03-23T16:25:48.901Z,99951.69
2023-03-23T16:28:17.054Z,99977.72
2023-03-23T16:30:45.746Z,99968.13
2023-03-23T16:33:13.622Z,99968.91
2023-03-23T16:35:42.705Z,99962.09
2023-03-23T16:38:16.210Z,99950.59
2023-03-23T16:40:44.896Z,99943.63
2023-03-23T16:43:13.027Z,99950.13
2023-03-23T16:45:44.180Z,99944.44
2023-03-23T16:48:13.279Z,99955.00
2023-03-23T16:50:41.378Z,99956.13
2023-03-23T16:53:10.041Z,99970.28
2023-03-23T16:55:40.630Z,99977.41
2023-03-23T16:58:17.116Z,99966.72
2023-03-23T17:00:47.979Z,99981.19
2023-03-23T17:03:16.376Z,99986.91
2023-03-23T17:05:45.019Z,99998.75
2023-03-23T17:08:13.287Z,100019.03
2023-03-23T17:10:43.663Z,100001.34
2023-03-23T17:13:12.152Z,100009.13
2023-03-23T17:15:40.916Z,99999.72
2023-03-23T17:18:09.281Z,100010.25
2023-03-23T17:20:37.248Z,100012.69
2023-03-23T17:23:05.881Z,100021.63
2023-03-23T17:25:33.598Z,100001.13
2023-03-23T17:28:05.851Z,100003.88
2023-03-23T17:30:34.910Z,100008.22
2023-03-23T17:33:02.828Z,100003.50
2023-03-23T17:35:30.626Z,100004.25
2023-03-23T17:37:58.454Z,99996.63
2023-03-23T17:40:26.606Z,100012.69
2023-03-23T17:42:54.352Z,100007.66
2023-03-23T17:45:23.420Z,100015.78
2023-03-23T17:47:51.106Z,100025.19
2023-03-23T17:50:18.862Z,100050.59
2023-03-23T17:52:46.544Z,100055.41
2023-03-23T17:55:14.220Z,100048.09
2023-03-23T17:57:43.340Z,100031.03
2023-03-23T18:00:12.689Z,100024.91
2023-03-23T18:02:41.945Z,100026.38
2023-03-23T18:05:10.681Z,100020.41
2023-03-23T18:07:39.579Z,100021.13
2023-03-23T18:10:11.701Z,100007.03
2023-03-23T18:12:39.840Z,100002.91
2023-03-23T18:15:08.869Z,99992.53
2023-03-23T18:17:36.681Z,99994.50
2023-03-23T18:20:07.355Z,100004.00
2023-03-23T18:22:35.420Z,100007.38
2023-03-23T18:25:05.016Z,100011.56
2023-03-23T18:27:32.847Z,100012.06
2023-03-23T18:30:00.842Z,100020.94
2023-03-23T18:32:28.637Z,100031.03
2023-03-23T18:34:56.442Z,100042.66
2023-03-23T18:37:25.508Z,100047.16
2023-03-23T18:39:53.550Z,100051.94
2023-03-23T18:42:21.304Z,100058.28
2023-03-23T18:44:49.047Z,100070.69
2023-03-23T18:47:16.678Z,100079.16
2023-03-23T18:49:46.288Z,100074.97
2023-03-23T18:52:14.062Z,100066.53
2023-03-23T18:54:45.197Z,100055.09
2023-03-23T18:57:13.109Z,100057.69
2023-03-23T18:59:41.134Z,100043.50
2023-03-23T19:02:11.502Z,100035.34
2023-03-23T19:04:39.388Z,100051.34
2023-03-23T19:07:07.616Z,100046.88
2023-03-23T19:09:35.801Z,100044.41
2023-03-23T19:12:04.973Z,100047.16
2023-03-23T19:14:32.601Z,100050.34
2023-03-23T19:17:00.320Z,100045.44
2023-03-23T19:19:28.328Z,100038.72
2023-03-23T19:21:55.961Z,100041.38
2023-03-23T19:24:23.787Z,100042.38
2023-03-23T19:26:51.730Z,100045.34
2023-03-23T19:29:26.070Z,100041.25
2023-03-23T19:31:55.807Z,100046.97
2023-03-23T19:34:24.632Z,100049.00
2023-03-23T19:36:56.263Z,100046.66
2023-03-23T19:39:30.870Z,100040.66
2023-03-23T19:41:58.802Z,100049.00
2023-03-23T19:44:28.857Z,100052.16
2023-03-23T19:46:56.965Z,100050.31
2023-03-23T19:49:25.413Z,100048.06
2023-03-23T19:52:07.167Z,100039.41
2023-03-23T19:54:37.195Z,100039.63
2023-03-23T19:57:05.354Z,100045.00
2023-03-23T19:59:34.816Z,100043.16
2023-03-23T20:02:02.756Z,100047.03
2023-03-23T20:04:30.540Z,100049.41
2023-03-23T20:06:59.022Z,100051.63
2023-03-23T20:09:26.757Z,100052.75
2023-03-23T20:11:54.437Z,100049.59
2023-03-23T20:14:22.093Z,100053.00
2023-03-23T20:16:52.772Z,100055.75
2023-03-23T20:19:21.330Z,100054.03
2023-03-23T20:21:49.121Z,100055.75
2023-03-23T20:24:16.947Z,100050.50
2023-03-23T20:26:44.757Z,100041.84
2023-03-23T20:29:12.896Z,100052.34
2023-03-23T20:31:43.117Z,100059.66
2023-03-23T20:34:14.858Z,100051.72
2023-03-23T20:36:45.093Z,100048.84
2023-03-23T20:39:14.990Z,100046.50
2023-03-23T20:41:43.572Z,100032.66
2023-03-23T20:44:15.469Z,100046.72
2023-03-23T20:46:43.774Z,100040.78
2023-03-23T20:49:13.144Z,100035.09
2023-03-23T20:51:40.960Z,100040.38
2023-03-23T20:54:10.042Z,100035.47
2023-03-23T20:56:40.277Z,100037.41
2023-03-23T20:59:08.273Z,100041.59
2023-03-23T21:01:36.942Z,100036.38
2023-03-23T21:04:04.867Z,100029.63
2023-03-23T21:06:33.971Z,100037.31
2023-03-23T21:09:01.616Z,100038.31
2023-03-23T21:11:30.056Z,100046.25
2023-03-23T21:13:57.777Z,100043.31
2023-03-23T21:16:27.346Z,100046.03
2023-03-23T21:18:55.206Z,100038.84
2023-03-23T21:21:27.185Z,100046.97
2023-03-23T21:23:57.289Z,100038.22
2023-03-23T21:26:30.772Z,100032.41
2023-03-23T21:29:01.034Z,100031.41
2023-03-23T21:31:31.571Z,100019.91
2023-03-23T21:33:59.908Z,100014.22
2023-03-23T21:36:28.436Z,100009.63
2023-03-23T21:38:57.847Z,100000.28
2023-03-23T21:41:26.995Z,100002.50
2023-03-23T21:43:54.659Z,99998.75
2023-03-23T21:46:23.254Z,99990.88
2023-03-23T21:48:51.901Z,100004.09
2023-03-23T21:51:23.965Z,99998.09
2023-03-23T21:53:54.153Z,99990.16
2023-03-23T21:56:24.548Z,99998.97
2023-03-23T21:58:52.889Z,99995.72
2023-03-23T22:01:22.129Z,99999.88
2023-03-23T22:03:50.614Z,99993.06
2023-03-23T22:06:24.798Z,99993.97
2023-03-23T22:08:52.798Z,99995.38
2023-03-23T22:11:28.294Z,99995.69
2023-03-23T22:13:57.591Z,99993.81
2023-03-23T22:16:26.538Z,99982.34
2023-03-23T22:18:55.625Z,99975.22
2023-03-23T22:21:27.160Z,99975.81
2023-03-23T22:23:56.722Z,99984.34
2023-03-23T22:26:27.611Z,99976.16
2023-03-23T22:28:56.182Z,99979.50
2023-03-23T22:31:27.374Z,99977.13
2023-03-23T22:33:56.447Z,99977.66
2023-03-23T22:36:26.205Z,99978.25
2023-03-23T22:38:54.996Z,99975.34
2023-03-23T22:41:26.326Z,99966.38
2023-03-23T22:43:54.705Z,99974.16
2023-03-23T22:46:23.347Z,99971.59
2023-03-23T22:48:51.207Z,99967.22
2023-03-23T22:51:19.774Z,99963.91
2023-03-23T22:53:48.280Z,99955.50
2023-03-23T22:56:16.643Z,99951.72
2023-03-23T22:58:46.300Z,99951.94
2023-03-23T23:01:16.327Z,99946.09
2023-03-23T23:03:44.362Z,99951.56
2023-03-23T23:06:13.101Z,99941.44
2023-03-23T23:08:42.209Z,99937.63
2023-03-23T23:11:12.081Z,99941.19
2023-03-23T23:13:40.819Z,99939.66
2023-03-23T23:16:11.871Z,99936.66
2023-03-23T23:18:40.438Z,99936.38
2023-03-23T23:21:10.283Z,99934.16
2023-03-23T23:23:38.227Z,99929.78
2023-03-23T23:26:07.126Z,99941.03
2023-03-23T23:28:35.364Z,99943.50
2023-03-23T23:31:03.816Z,99939.41
2023-03-23T23:33:33.261Z,99926.00
2023-03-23T23:36:01.591Z,99930.44
2023-03-23T23:38:29.417Z,99925.78
2023-03-23T23:40:57.521Z,99929.56
2023-03-23T23:43:25.485Z,99924.38
2023-03-23T23:45:53.570Z,99914.50
2023-03-23T23:48:21.601Z,99915.34
2023-03-23T23:50:52.856Z,99915.25
2023-03-23T23:53:22.861Z,99918.38
2023-03-23T23:55:50.873Z,99918.97
2023-03-23T23:58:19.031Z,99909.63
